createdAt,value
2022-11-23T00:02:11.715Z,1.10
2022-11-23T00:04:40.752Z,1.20
2022-11-23T00:07:09.691Z,1.30
2022-11-23T00:09:38.768Z,1.60
2022-11-23T00:12:08.794Z,1.50
2022-11-23T00:14:38.483Z,1.33
2022-11-23T00:17:07.217Z,1.30
2022-11-23T00:19:36.258Z,1.00
2022-11-23T00:22:05.274Z,1.00
2022-11-23T00:24:34.634Z,0.85
2022-11-23T00:27:03.481Z,1.20
2022-11-23T00:29:32.891Z,1.27
2022-11-23T00:32:01.860Z,1.30
2022-11-23T00:34:30.885Z,1.33
2022-11-23T00:36:59.731Z,1.30
2022-11-23T00:39:29.046Z,1.15
2022-11-23T00:41:58.052Z,1.35
2022-11-23T00:44:27.544Z,1.98
2022-11-23T00:46:57.721Z,2.15
2022-11-23T00:49:26.719Z,2.20
2022-11-23T00:51:55.791Z,1.20
2022-11-23T00:54:25.027Z,1.35
2022-11-23T00:56:53.890Z,1.38
2022-11-23T00:59:24.055Z,1.10
2022-11-23T01:01:52.865Z,1.30
2022-11-23T01:04:21.956Z,1.30
2022-11-23T01:06:50.899Z,1.40
2022-11-23T01:09:22.049Z,1.30
2022-11-23T01:11:51.810Z,1.20
2022-11-23T01:14:25.203Z,1.00
2022-11-23T01:16:54.193Z,1.50
2022-11-23T01:19:23.200Z,1.93
2022-11-23T01:21:52.355Z,1.95
2022-11-23T01:24:23.863Z,2.00
2022-11-23T01:26:54.535Z,1.50
2022-11-23T01:29:24.888Z,1.70
2022-11-23T01:31:53.855Z,1.67
2022-11-23T01:34:23.368Z,1.60
2022-11-23T01:36:52.677Z,1.60
2022-11-23T01:39:21.442Z,1.65
2022-11-23T01:41:50.493Z,1.77
2022-11-23T01:44:34.701Z,2.05
2022-11-23T01:47:08.934Z,2.22
2022-11-23T01:49:45.314Z,1.98
2022-11-23T01:52:23.218Z,2.20
2022-11-23T01:55:00.594Z,2.33
2022-11-23T01:57:40.484Z,2.63
2022-11-23T02:00:11.682Z,3.90
2022-11-23T02:02:49.343Z,3.70
2022-11-23T02:05:21.710Z,4.03
2022-11-23T02:07:52.515Z,3.65
2022-11-23T02:10:24.119Z,2.92
2022-11-23T02:12:53.901Z,3.63
2022-11-23T02:15:22.756Z,3.70
2022-11-23T02:17:52.858Z,3.33
2022-11-23T02:20:22.056Z,3.45
2022-11-23T02:23:02.851Z,3.83
2022-11-23T02:25:46.864Z,4.18
2022-11-23T02:28:26.460Z,4.20
2022-11-23T02:30:56.646Z,5.10
2022-11-23T02:33:26.523Z,4.82
2022-11-23T02:36:02.531Z,5.18
2022-11-23T02:38:35.620Z,4.90
2022-11-23T02:41:04.612Z,5.20
2022-11-23T02:43:33.526Z,4.93
2022-11-23T02:46:05.856Z,4.93
2022-11-23T02:51:21.598Z,4.38
2022-11-23T02:53:50.498Z,4.30
2022-11-23T02:56:20.744Z,4.60
2022-11-23T02:58:50.708Z,3.60
2022-11-23T03:01:20.416Z,3.40
2022-11-23T03:03:49.448Z,2.60
2022-11-23T03:06:18.505Z,2.60
2022-11-23T03:08:47.737Z,2.90
2022-11-23T03:11:18.677Z,2.72
2022-11-23T03:13:47.775Z,2.90
2022-11-23T03:16:17.592Z,3.05
2022-11-23T03:18:49.017Z,3.13
2022-11-23T03:21:20.152Z,3.20
2022-11-23T03:23:49.539Z,4.20
2022-11-23T03:26:18.485Z,3.70
2022-11-23T03:28:56.954Z,3.60
2022-11-23T03:31:31.451Z,4.03
2022-11-23T03:34:01.564Z,3.75
2022-11-23T03:36:33.166Z,4.28
2022-11-23T03:39:02.666Z,4.18
2022-11-23T03:41:49.905Z,3.90
2022-11-23T03:44:21.779Z,3.80
2022-11-23T03:46:54.152Z,3.63
2022-11-23T03:49:23.250Z,3.42
2022-11-23T03:51:52.167Z,3.57
2022-11-23T03:54:21.426Z,3.38
2022-11-23T03:56:50.420Z,3.92
2022-11-23T03:59:20.391Z,3.10
2022-11-23T04:01:49.565Z,3.85
2022-11-23T04:04:24.131Z,3.30
2022-11-23T04:07:02.945Z,3.40
2022-11-23T04:09:35.465Z,3.63
2022-11-23T04:12:07.984Z,3.33
2022-11-23T04:14:39.717Z,4.20
2022-11-23T04:17:08.888Z,3.40
2022-11-23T04:19:39.228Z,3.80
2022-11-23T04:22:08.478Z,3.80
2022-11-23T04:24:42.409Z,3.83
2022-11-23T04:27:11.920Z,3.55
2022-11-23T04:29:41.387Z,3.95
2022-11-23T04:32:11.104Z,3.65
2022-11-23T04:34:40.766Z,3.90
2022-11-23T04:37:13.646Z,3.60
2022-11-23T04:39:45.946Z,4.15
2022-11-23T04:42:25.890Z,3.90
2022-11-23T04:44:59.307Z,4.25
2022-11-23T04:47:28.737Z,3.72
2022-11-23T04:50:01.452Z,4.13
2022-11-23T04:52:31.047Z,3.53
2022-11-23T04:55:00.440Z,3.85
2022-11-23T04:57:32.940Z,4.07
2022-11-23T05:00:02.051Z,3.25
2022-11-23T05:02:34.044Z,3.88
2022-11-23T05:05:21.899Z,3.88
2022-11-23T05:07:51.369Z,3.70
2022-11-23T05:10:23.032Z,3.65
2022-11-23T05:12:55.490Z,4.50
2022-11-23T05:15:24.916Z,4.00
2022-11-23T05:17:58.986Z,3.92
2022-11-23T05:20:28.524Z,4.18
2022-11-23T05:22:57.579Z,4.55
2022-11-23T05:25:28.197Z,4.43
2022-11-23T05:28:30.205Z,4.20
2022-11-23T05:30:54.821Z,4.43
2022-11-23T05:33:24.155Z,4.57
2022-11-23T05:35:53.348Z,4.22
2022-11-23T05:38:32.875Z,4.75
2022-11-23T05:41:04.335Z,4.53
2022-11-23T05:43:35.756Z,4.60
2022-11-23T05:46:05.831Z,4.33
2022-11-23T05:48:36.944Z,5.20
2022-11-23T05:51:11.027Z,4.85
2022-11-23T05:53:45.770Z,5.13
2022-11-23T05:56:27.779Z,4.80
2022-11-23T05:59:13.420Z,5.13
2022-11-23T06:01:45.958Z,4.57
2022-11-23T06:04:22.270Z,4.93
2022-11-23T06:06:51.504Z,4.70
2022-11-23T06:09:21.027Z,5.18
2022-11-23T06:11:52.816Z,4.95
2022-11-23T06:14:22.702Z,5.40
2022-11-23T06:16:52.977Z,5.32
2022-11-23T06:19:39.642Z,5.25
2022-11-23T06:22:08.766Z,5.40
2022-11-23T06:24:45.197Z,5.70
2022-11-23T06:27:34.279Z,5.07
2022-11-23T06:30:08.588Z,4.78
2022-11-23T06:32:38.967Z,5.57
2022-11-23T06:35:08.623Z,5.30
2022-11-23T06:37:41.544Z,5.60
2022-11-23T06:40:12.234Z,5.47
2022-11-23T06:42:42.871Z,6.75
2022-11-23T06:45:34.725Z,5.40
2022-11-23T06:48:08.076Z,6.20
2022-11-23T06:50:43.294Z,5.85
2022-11-23T06:53:15.914Z,6.00
2022-11-23T06:55:49.681Z,6.00
2022-11-23T06:58:21.152Z,6.50
2022-11-23T07:00:50.949Z,5.90
2022-11-23T07:03:26.892Z,6.20
2022-11-23T07:06:09.253Z,5.90
2022-11-23T07:08:44.775Z,6.18
2022-11-23T07:11:36.877Z,6.35
2022-11-23T07:14:06.512Z,6.53
2022-11-23T07:16:38.203Z,5.90
2022-11-23T07:19:09.925Z,6.25
2022-11-23T07:21:38.983Z,6.40
2022-11-23T07:24:08.434Z,6.60
2022-11-23T07:26:37.960Z,5.97
2022-11-23T07:29:06.817Z,6.05
2022-11-23T07:31:37.109Z,6.20
2022-11-23T07:34:06.945Z,6.38
2022-11-23T07:36:37.824Z,6.68
2022-11-23T07:39:08.986Z,6.63
2022-11-23T07:41:38.492Z,6.40
2022-11-23T07:44:10.687Z,6.37
2022-11-23T07:46:40.365Z,6.93
2022-11-23T07:49:09.245Z,6.30
2022-11-23T07:51:39.202Z,6.38
2022-11-23T07:54:08.199Z,7.05
2022-11-23T07:56:37.534Z,7.07
2022-11-23T07:59:06.693Z,6.57
2022-11-23T08:01:35.826Z,6.50
2022-11-23T08:04:05.638Z,6.80
2022-11-23T08:06:34.781Z,6.60
2022-11-23T08:09:03.770Z,7.43
2022-11-23T08:11:32.798Z,7.15
2022-11-23T08:14:01.895Z,6.97
2022-11-23T08:16:32.049Z,7.72
2022-11-23T08:19:01.824Z,7.60
2022-11-23T08:21:30.863Z,8.00
2022-11-23T08:23:59.765Z,7.90
2022-11-23T08:26:31.844Z,8.30
2022-11-23T08:29:04.583Z,8.23
2022-11-23T08:31:34.181Z,7.95
2022-11-23T08:34:03.749Z,8.10
2022-11-23T08:36:33.615Z,7.80
2022-11-23T08:39:02.533Z,7.90
2022-11-23T08:41:31.591Z,7.68
2022-11-23T08:44:00.399Z,7.75
2022-11-23T08:46:29.781Z,8.07
2022-11-23T08:48:58.942Z,7.95
2022-11-23T08:51:28.016Z,8.15
2022-11-23T08:53:57.234Z,8.20
2022-11-23T08:56:26.344Z,8.35
2022-11-23T08:58:55.552Z,8.35
2022-11-23T09:01:24.868Z,7.95
2022-11-23T09:03:56.308Z,7.40
2022-11-23T09:06:30.052Z,8.13
2022-11-23T09:08:59.173Z,7.05
2022-11-23T09:11:28.414Z,7.50
2022-11-23T09:13:57.808Z,7.25
2022-11-23T09:16:30.925Z,6.53
2022-11-23T09:19:03.442Z,5.95
2022-11-23T09:21:34.926Z,6.00
2022-11-23T09:24:05.830Z,6.45
2022-11-23T09:26:35.446Z,5.78
2022-11-23T09:29:09.366Z,6.27
2022-11-23T09:31:38.901Z,5.10
2022-11-23T09:34:08.707Z,5.43
2022-11-23T09:36:37.629Z,5.05
2022-11-23T09:39:06.967Z,5.20
2022-11-23T09:42:14.896Z,4.90
2022-11-23T09:45:12.579Z,5.72
2022-11-23T09:48:04.692Z,6.28
2022-11-23T09:50:49.283Z,6.20
2022-11-23T09:53:46.471Z,6.72
2022-11-23T09:56:29.582Z,6.78
2022-11-23T09:59:03.563Z,6.57
2022-11-23T10:01:33.053Z,6.43
2022-11-23T10:04:01.951Z,6.57
2022-11-23T10:06:35.983Z,7.00
2022-11-23T10:09:14.164Z,6.88
2022-11-23T10:11:57.907Z,7.22
2022-11-23T10:14:45.132Z,7.32
2022-11-23T10:17:20.227Z,6.50
2022-11-23T10:20:21.141Z,6.93
2022-11-23T10:23:02.589Z,7.28
2022-11-23T10:25:40.862Z,6.38
2022-11-23T10:28:16.245Z,6.72
2022-11-23T10:30:54.759Z,6.22
2022-11-23T10:33:34.032Z,6.05
2022-11-23T10:36:03.407Z,5.37
2022-11-23T10:38:33.701Z,4.53
2022-11-23T10:41:12.867Z,4.75
2022-11-23T10:43:54.156Z,5.05
2022-11-23T10:46:38.671Z,5.57
2022-11-23T10:49:19.969Z,4.30
2022-11-23T10:51:58.189Z,5.00
2022-11-23T10:54:53.416Z,4.72
2022-11-23T10:57:45.614Z,4.47
2022-11-23T11:00:14.746Z,4.22
2022-11-23T11:02:46.329Z,3.53
2022-11-23T11:06:07.109Z,3.55
2022-11-23T11:08:24.310Z,3.50
2022-11-23T11:11:08.800Z,3.75
2022-11-23T11:13:44.523Z,3.50
2022-11-23T11:16:35.067Z,4.05
2022-11-23T11:19:29.738Z,3.15
2022-11-23T11:22:00.905Z,3.50
2022-11-23T11:24:35.649Z,3.40
2022-11-23T11:27:21.589Z,3.50
2022-11-23T11:29:55.098Z,4.00
2022-11-23T11:32:54.011Z,4.00
2022-11-23T11:35:39.956Z,4.57
2022-11-23T11:38:12.209Z,4.35
2022-11-23T11:40:53.432Z,5.03
2022-11-23T11:43:39.173Z,4.97
2022-11-23T11:46:33.097Z,4.30
2022-11-23T11:49:23.439Z,4.40
2022-11-23T11:52:20.619Z,4.30
2022-11-23T11:55:04.637Z,4.28
2022-11-23T11:57:41.284Z,3.92
2022-11-23T12:00:20.628Z,3.70
2022-11-23T12:03:10.931Z,3.67
2022-11-23T12:06:01.072Z,3.95
2022-11-23T12:08:53.590Z,3.78
2022-11-23T12:11:23.852Z,3.35
2022-11-23T12:14:01.070Z,3.97
2022-11-23T12:16:31.121Z,3.65
2022-11-23T12:19:11.055Z,3.63
2022-11-23T12:22:01.951Z,3.72
2022-11-23T12:25:01.978Z,3.67
2022-11-23T12:28:03.895Z,3.88
2022-11-23T12:31:07.624Z,4.28
2022-11-23T12:33:46.207Z,4.50
2022-11-23T12:36:36.351Z,6.72
2022-11-23T12:39:14.509Z,4.50
2022-11-23T12:41:58.983Z,3.87
2022-11-23T12:45:22.461Z,4.07
2022-11-23T12:48:19.997Z,4.45
2022-11-23T12:50:52.408Z,3.88
2022-11-23T12:53:35.305Z,4.03
2022-11-23T12:56:47.852Z,3.87
2022-11-23T12:59:18.976Z,3.83
2022-11-23T13:01:55.668Z,3.63
2022-11-23T13:04:46.843Z,3.72
2022-11-23T13:07:31.672Z,3.70
2022-11-23T13:10:14.996Z,4.07
2022-11-23T13:13:16.046Z,4.90
2022-11-23T13:16:08.719Z,4.45
2022-11-23T13:19:23.103Z,4.38
2022-11-23T13:21:52.518Z,4.75
2022-11-23T13:24:36.871Z,4.60
2022-11-23T13:27:15.471Z,3.08
2022-11-23T13:29:54.114Z,2.97
2022-11-23T13:32:57.270Z,2.80
2022-11-23T13:35:26.378Z,3.00
2022-11-23T13:37:58.728Z,2.67
2022-11-23T13:40:38.193Z,2.58
2022-11-23T13:43:10.294Z,2.38
2022-11-23T13:45:40.238Z,2.77
2022-11-23T13:48:41.294Z,2.30
2022-11-23T13:51:05.928Z,2.28
2022-11-23T13:53:43.519Z,2.20
2022-11-23T13:56:28.388Z,2.05
2022-11-23T13:59:26.571Z,2.10
2022-11-23T14:02:08.656Z,2.33
2022-11-23T14:04:43.929Z,2.10
2022-11-23T14:07:26.707Z,2.58
2022-11-23T14:10:08.466Z,3.03
2022-11-23T14:12:58.049Z,4.25
2022-11-23T14:15:35.715Z,5.68
2022-11-23T14:18:41.950Z,4.90
2022-11-23T14:21:29.856Z,4.90
2022-11-23T14:24:26.866Z,3.75
2022-11-23T14:27:45.815Z,4.38
2022-11-23T14:30:32.788Z,4.00
2022-11-23T14:33:26.959Z,2.60
2022-11-23T14:36:19.668Z,2.08
2022-11-23T14:39:19.299Z,2.05
2022-11-23T14:41:55.641Z,1.80
2022-11-23T14:44:38.577Z,1.48
2022-11-23T14:47:10.273Z,1.58
2022-11-23T14:49:51.636Z,2.33
2022-11-23T14:52:24.980Z,3.90
2022-11-23T14:54:58.256Z,3.88
2022-11-23T14:57:36.346Z,3.03
2022-11-23T15:00:11.638Z,2.83
2022-11-23T15:02:44.297Z,3.67
2022-11-23T15:05:42.034Z,4.95
2022-11-23T15:08:27.655Z,5.60
2022-11-23T15:11:24.601Z,5.18
2022-11-23T15:14:04.476Z,6.60
2022-11-23T15:16:43.590Z,5.70
2022-11-23T15:19:43.861Z,4.82
2022-11-23T15:22:21.067Z,6.00
2022-11-23T15:24:50.774Z,6.73
2022-11-23T15:27:31.095Z,6.47
2022-11-23T15:30:02.010Z,6.55
2022-11-23T15:32:35.166Z,6.65
2022-11-23T15:35:08.882Z,6.63
2022-11-23T15:37:46.818Z,6.35
2022-11-23T15:40:21.144Z,5.75
2022-11-23T15:42:52.636Z,6.78
2022-11-23T15:45:58.565Z,6.32
2022-11-23T15:48:37.828Z,8.05
2022-11-23T15:51:10.321Z,8.10
2022-11-23T15:53:48.247Z,6.95
2022-11-23T15:56:35.420Z,7.05
2022-11-23T15:59:22.408Z,3.00
2022-11-23T16:01:51.789Z,3.63
2022-11-23T16:04:36.649Z,4.47
2022-11-23T16:07:20.397Z,4.67
2022-11-23T16:10:09.749Z,4.83
2022-11-23T16:12:57.880Z,5.22
2022-11-23T16:15:39.689Z,5.00
2022-11-23T16:18:20.942Z,5.32
2022-11-23T16:20:57.923Z,5.53
2022-11-23T16:23:31.721Z,5.97
2022-11-23T16:26:02.868Z,6.43
2022-11-23T16:28:33.458Z,7.63
2022-11-23T16:31:03.364Z,10.88
2022-11-23T16:33:32.312Z,8.45
2022-11-23T16:36:01.490Z,6.38
2022-11-23T16:38:31.062Z,5.13
2022-11-23T16:41:00.269Z,4.28
2022-11-23T16:43:29.126Z,3.63
2022-11-23T16:45:58.446Z,2.10
2022-11-23T16:48:27.491Z,2.28
2022-11-23T16:50:58.509Z,2.70
2022-11-23T16:53:47.248Z,3.83
2022-11-23T16:56:27.172Z,4.20
2022-11-23T16:58:56.936Z,3.80
2022-11-23T17:01:29.600Z,3.20
2022-11-23T17:03:59.297Z,4.40
2022-11-23T17:06:28.266Z,4.88
2022-11-23T17:09:06.147Z,4.17
2022-11-23T17:11:48.860Z,2.67
2022-11-23T17:14:19.797Z,1.17
2022-11-23T17:16:50.389Z,0.60
2022-11-23T17:19:21.988Z,0.60
2022-11-23T17:21:53.342Z,0.52
2022-11-23T17:24:23.045Z,0.77
2022-11-23T17:26:54.628Z,0.50
2022-11-23T17:29:25.296Z,0.40
2022-11-23T17:31:54.433Z,0.60
2022-11-23T17:34:23.344Z,0.55
2022-11-23T17:36:53.586Z,0.50
2022-11-23T17:39:26.703Z,0.40
2022-11-23T17:42:03.228Z,0.32
2022-11-23T17:44:34.002Z,0.60
2022-11-23T17:47:03.747Z,0.50
2022-11-23T17:49:34.875Z,0.40
2022-11-23T17:52:04.835Z,0.55
2022-11-23T17:54:33.825Z,0.55
2022-11-23T17:57:02.982Z,1.00
2022-11-23T17:59:32.220Z,1.10
2022-11-23T18:02:01.649Z,0.43
2022-11-23T18:04:30.850Z,0.50
2022-11-23T18:06:59.992Z,2.30
2022-11-23T18:09:29.489Z,3.47
2022-11-23T18:11:59.189Z,4.30
2022-11-23T18:14:29.973Z,5.38
2022-11-23T18:17:00.311Z,0.90
2022-11-23T18:19:29.404Z,0.60
2022-11-23T18:21:58.787Z,0.50
2022-11-23T18:24:27.579Z,0.50
2022-11-23T18:26:57.062Z,1.70
2022-11-23T18:29:26.075Z,1.00
2022-11-23T18:31:55.003Z,1.00
2022-11-23T18:34:23.963Z,0.40
2022-11-23T18:36:53.162Z,0.30
2022-11-23T18:39:22.049Z,0.20
2022-11-23T18:41:51.431Z,0.28
2022-11-23T18:44:20.199Z,0.30
2022-11-23T18:46:50.390Z,0.30
2022-11-23T18:49:19.308Z,0.35
2022-11-23T18:51:48.509Z,0.45
2022-11-23T18:54:17.442Z,0.13
2022-11-23T18:56:47.070Z,0.40
2022-11-23T18:59:42.130Z,0.30
2022-11-23T19:02:06.532Z,0.40
2022-11-23T19:04:35.369Z,0.50
2022-11-23T19:07:04.369Z,0.80
2022-11-23T19:09:34.031Z,2.75
2022-11-23T19:12:03.665Z,4.50
2022-11-23T19:14:32.500Z,4.88
2022-11-23T19:17:01.904Z,7.25
2022-11-23T19:19:31.207Z,17.63
2022-11-23T19:22:00.980Z,20.77
2022-11-23T19:24:29.979Z,10.88
2022-11-23T19:26:58.777Z,5.63
2022-11-23T19:29:27.946Z,1.80
2022-11-23T19:31:58.079Z,1.42
2022-11-23T19:34:27.093Z,0.90
2022-11-23T19:36:56.210Z,1.10
2022-11-23T19:39:25.196Z,0.90
2022-11-23T19:41:54.315Z,1.10
2022-11-23T19:44:23.084Z,1.00
2022-11-23T19:46:53.112Z,0.98
2022-11-23T19:49:22.891Z,0.70
2022-11-23T19:51:54.630Z,1.00
2022-11-23T19:54:24.425Z,0.75
2022-11-23T19:56:53.845Z,0.95
2022-11-23T19:59:23.049Z,0.70
2022-11-23T20:01:52.099Z,0.77
2022-11-23T20:04:22.051Z,7.97
2022-11-23T20:06:51.135Z,14.43
2022-11-23T20:09:21.964Z,14.73
2022-11-23T20:11:51.890Z,13.63
2022-11-23T20:14:21.197Z,16.60
2022-11-23T20:16:50.936Z,19.93
2022-11-23T20:19:19.834Z,21.92
2022-11-23T20:21:48.961Z,26.50
2022-11-23T20:24:17.776Z,17.48
2022-11-23T20:26:47.092Z,10.40
2022-11-23T20:29:16.809Z,6.43
2022-11-23T20:31:46.058Z,5.30
2022-11-23T20:34:20.440Z,5.00
2022-11-23T20:36:51.508Z,2.63
2022-11-23T20:39:20.551Z,2.77
2022-11-23T20:41:50.690Z,3.30
2022-11-23T20:44:20.024Z,3.00
2022-11-23T20:47:04.801Z,3.00
2022-11-23T20:49:34.152Z,2.58
2022-11-23T20:52:03.375Z,2.78
2022-11-23T20:54:32.911Z,2.72
2022-11-23T20:57:02.624Z,3.30
2022-11-23T20:59:33.770Z,3.50
2022-11-23T21:02:02.895Z,3.53
2022-11-23T21:04:32.166Z,2.80
2022-11-23T21:07:01.585Z,2.92
2022-11-23T21:09:30.432Z,1.70
2022-11-23T21:12:17.649Z,2.67
2022-11-23T21:14:47.115Z,3.10
2022-11-23T21:17:16.653Z,3.50
2022-11-23T21:19:45.637Z,3.03
2022-11-23T21:22:16.036Z,3.43
2022-11-23T21:24:45.073Z,3.90
2022-11-23T21:27:14.811Z,3.47
2022-11-23T21:29:46.053Z,1.58
2022-11-23T21:32:16.132Z,2.60
2022-11-23T21:34:45.643Z,3.60
2022-11-23T21:37:15.116Z,3.97
2022-11-23T21:39:47.953Z,4.10
2022-11-23T21:42:20.442Z,3.60
2022-11-23T21:44:49.284Z,4.10
2022-11-23T21:47:18.436Z,4.05
2022-11-23T21:49:47.213Z,3.60
2022-11-23T21:52:16.423Z,3.65
2022-11-23T21:54:48.972Z,3.60
2022-11-23T21:57:18.409Z,3.40
2022-11-23T21:59:47.194Z,3.50
2022-11-23T22:02:16.303Z,3.90
2022-11-23T22:04:45.165Z,3.95
2022-11-23T22:07:14.736Z,4.22
2022-11-23T22:09:43.696Z,3.08
2022-11-23T22:12:12.859Z,3.73
2022-11-23T22:14:41.765Z,3.50
2022-11-23T22:17:10.790Z,2.00
2022-11-23T22:19:39.620Z,2.00
2022-11-23T22:22:09.053Z,3.15
2022-11-23T22:24:37.835Z,2.55
2022-11-23T22:27:06.856Z,1.80
2022-11-23T22:29:35.692Z,1.70
2022-11-23T22:32:04.789Z,1.30
2022-11-23T22:34:36.183Z,0.90
2022-11-23T22:37:10.575Z,2.60
2022-11-23T22:39:40.703Z,3.25
2022-11-23T22:42:10.025Z,3.45
2022-11-23T22:44:40.394Z,2.75
2022-11-23T22:47:10.142Z,2.40
2022-11-23T22:49:39.210Z,2.60
2022-11-23T22:52:08.649Z,1.30
2022-11-23T22:54:37.535Z,2.10
2022-11-23T22:57:06.763Z,2.43
2022-11-23T22:59:35.584Z,2.10
2022-11-23T23:02:04.714Z,2.10
2022-11-23T23:04:33.983Z,2.90
2022-11-23T23:07:03.141Z,2.70
2022-11-23T23:09:32.021Z,2.40
2022-11-23T23:12:01.293Z,1.00
2022-11-23T23:14:30.186Z,1.20
2022-11-23T23:17:01.184Z,1.92
2022-11-23T23:19:30.639Z,1.10
2022-11-23T23:21:59.554Z,0.90
2022-11-23T23:24:29.237Z,1.45
2022-11-23T23:26:58.092Z,1.77
2022-11-23T23:29:28.237Z,1.77
2022-11-23T23:31:57.215Z,1.40
2022-11-23T23:34:26.762Z,1.20
2022-11-23T23:36:55.959Z,1.00
2022-11-23T23:39:25.270Z,1.10
2022-11-23T23:41:54.156Z,1.60
2022-11-23T23:44:23.233Z,1.70
2022-11-23T23:46:52.298Z,2.25
2022-11-23T23:49:21.708Z,1.77
2022-11-23T23:51:51.806Z,1.35
2022-11-23T23:54:21.052Z,1.83
2022-11-23T23:56:49.963Z,2.13
2022-11-23T23:59:19.078Z,2.80
